Time;durP1;ratioP1;P1;durP2;ratioP2;P2;SDS_P1;SDS_P2;PMS_P1;PMS_P2;Temp;Humidity;BMP_temperature;BMP_pressure;BME280_temperature;BME280_humidity;BME280_pressure;Samples;Min_cycle;Max_cycle;Signal;HPM_P1;HPM_P2
2023/12/23 00:01:17;;;;;;;0.82;0.30;;;;;;;4.38;100.00;98380.53;5095662;28;20403;-45
2023/12/23 00:03:46;;;;;;;3.20;0.40;;;;;;;4.41;100.00;98385.59;5112038;28;20050;-42
2023/12/23 00:06:16;;;;;;;0.20;0.20;;;;;;;4.54;100.00;98388.31;5111873;28;20051;-44
2023/12/23 00:08:45;;;;;;;0.77;0.40;;;;;;;4.43;100.00;98399.53;5112190;28;20137;-43
2023/12/23 00:11:13;;;;;;;0.90;0.40;;;;;;;4.03;100.00;98402.09;5111650;28;20511;-41
2023/12/23 00:13:42;;;;;;;0.45;0.30;;;;;;;4.07;100.00;98397.47;5111704;28;20454;-42
2023/12/23 00:16:10;;;;;;;0.20;0.20;;;;;;;4.14;100.00;98384.72;5111732;28;20044;-41
2023/12/23 00:18:39;;;;;;;0.82;0.30;;;;;;;4.23;100.00;98384.16;5093097;28;20481;-42
2023/12/23 00:21:08;;;;;;;0.98;0.40;;;;;;;4.36;100.00;98374.50;5111599;28;20097;-42
2023/12/23 00:23:38;;;;;;;0.28;0.20;;;;;;;4.16;100.00;98380.22;5108155;28;20047;-42
2023/12/23 00:26:06;;;;;;;0.93;0.47;;;;;;;4.27;100.00;98367.19;5091206;28;20098;-42
2023/12/23 00:28:34;;;;;;;1.67;0.38;;;;;;;4.34;100.00;98368.47;5091749;28;20079;-42
2023/12/23 00:31:02;;;;;;;0.35;0.30;;;;;;;4.41;100.00;98363.63;5091382;28;20052;-41
2023/12/23 00:33:31;;;;;;;0.43;0.30;;;;;;;4.43;100.00;98373.16;5111953;28;20051;-42
2023/12/23 00:36:00;;;;;;;0.60;0.43;;;;;;;4.37;100.00;98354.25;5111639;28;20050;-42
2023/12/23 00:38:28;;;;;;;0.68;0.40;;;;;;;4.39;100.00;98358.47;5112551;28;20078;-41
2023/12/23 00:40:58;;;;;;;0.60;0.35;;;;;;;4.47;100.00;98337.69;5111985;28;20048;-42
2023/12/23 00:43:26;;;;;;;0.68;0.35;;;;;;;4.43;100.00;98319.50;5112892;28;20043;-41
2023/12/23 00:45:55;;;;;;;0.75;0.50;;;;;;;4.41;100.00;98319.59;5113821;28;20126;-43
2023/12/23 00:48:23;;;;;;;0.70;0.43;;;;;;;4.48;100.00;98326.19;5109201;28;20040;-41
2023/12/23 00:50:51;;;;;;;0.40;0.30;;;;;;;4.39;100.00;98328.59;5094298;28;20495;-43
2023/12/23 00:53:20;;;;;;;1.75;0.50;;;;;;;4.39;100.00;98344.41;5094787;28;20044;-42
2023/12/23 00:55:48;;;;;;;1.35;0.40;;;;;;;4.44;100.00;98348.47;5113317;28;20051;-43
2023/12/23 00:58:18;;;;;;;0.43;0.30;;;;;;;4.44;100.00;98356.38;5114374;28;20047;-42
2023/12/23 01:00:46;;;;;;;0.95;0.30;;;;;;;4.46;100.00;98362.41;5113758;28;20040;-41
2023/12/23 01:03:15;;;;;;;0.65;0.28;;;;;;;4.56;100.00;98363.50;5095840;28;20109;-42
2023/12/23 01:05:43;;;;;;;0.45;0.20;;;;;;;4.61;100.00;98355.25;5095363;28;20127;-43
2023/12/23 01:08:12;;;;;;;0.88;0.40;;;;;;;4.37;100.00;98362.16;5112378;28;20043;-42
2023/12/23 01:10:40;;;;;;;0.73;0.30;;;;;;;4.46;100.00;98395.88;5117080;28;20052;-42
2023/12/23 01:13:09;;;;;;;0.77;0.40;;;;;;;4.54;100.00;98414.72;5117678;28;20040;-42
2023/12/23 01:15:40;;;;;;;0.50;0.32;;;;;;;4.48;100.00;98429.16;5118184;28;20093;-42
2023/12/23 01:18:08;;;;;;;0.65;0.40;;;;;;;4.53;100.00;98436.75;5117892;28;20334;-43
2023/12/23 01:20:38;;;;;;;0.70;0.52;;;;;;;4.63;100.00;98429.94;5117922;28;20067;-44
2023/12/23 01:23:06;;;;;;;0.90;0.50;;;;;;;4.50;100.00;98406.13;5117376;28;20123;-42
2023/12/23 01:25:35;;;;;;;1.95;0.70;;;;;;;4.50;100.00;98407.94;5116750;28;20079;-42
2023/12/23 01:28:05;;;;;;;1.50;0.60;;;;;;;4.53;100.00;98421.75;5116519;28;20046;-42
2023/12/23 01:30:34;;;;;;;0.30;0.30;;;;;;;4.56;100.00;98437.44;5116681;28;20093;-42
2023/12/23 01:33:04;;;;;;;0.38;0.30;;;;;;;4.45;100.00;98433.78;5101473;28;20048;-42
2023/12/23 01:35:32;;;;;;;0.70;0.40;;;;;;;4.52;100.00;98435.91;5095293;28;20052;-42
2023/12/23 01:38:00;;;;;;;0.75;0.30;;;;;;;4.51;100.00;98421.03;5101927;28;20035;-43
2023/12/23 01:40:33;;;;;;;0.35;0.30;;;;;;;4.45;100.00;98417.97;5096748;28;20109;-42
2023/12/23 01:43:02;;;;;;;0.30;0.30;;;;;;;4.39;100.00;98403.34;5103834;28;20035;-42
2023/12/23 01:45:30;;;;;;;0.73;0.50;;;;;;;4.50;100.00;98397.38;5115293;28;20074;-41
2023/12/23 01:48:06;;;;;;;1.40;0.30;;;;;;;4.47;100.00;98390.50;5115230;28;20531;-42
2023/12/23 01:50:34;;;;;;;0.20;0.20;;;;;;;4.49;100.00;98380.69;5115564;28;20043;-42
2023/12/23 01:53:03;;;;;;;0.30;0.30;;;;;;;4.42;100.00;98387.28;5115736;28;20487;-41
2023/12/23 01:55:32;;;;;;;0.30;0.30;;;;;;;4.46;100.00;98399.38;5095993;28;20156;-42
2023/12/23 01:58:00;;;;;;;0.65;0.35;;;;;;;4.41;100.00;98393.53;5103886;28;20039;-45
2023/12/23 02:00:29;;;;;;;1.35;0.40;;;;;;;4.41;100.00;98390.88;5114976;28;20047;-46
2023/12/23 02:02:58;;;;;;;0.20;0.20;;;;;;;4.50;100.00;98403.50;5105780;28;20117;-41
2023/12/23 02:05:28;;;;;;;0.32;0.30;;;;;;;4.48;100.00;98413.31;5094204;28;20044;-40
2023/12/23 02:07:56;;;;;;;0.40;0.32;;;;;;;4.53;100.00;98448.16;5106852;28;20058;-41
2023/12/23 02:10:25;;;;;;;0.43;0.43;;;;;;;4.58;100.00;98463.72;5114019;28;20481;-41
2023/12/23 02:13:03;;;;;;;1.75;0.52;;;;;;;4.56;100.00;98463.84;5098662;28;20540;-41
2023/12/23 02:15:43;;;;;;;0.90;0.30;;;;;;;4.54;100.00;98470.16;5103804;28;20481;-42
2023/12/23 02:18:11;;;;;;;0.88;0.50;;;;;;;4.50;100.00;98458.94;5113667;28;20039;-45
2023/12/23 02:20:41;;;;;;;0.88;0.57;;;;;;;4.42;100.00;98449.81;5095544;28;20044;-42
2023/12/23 02:23:13;;;;;;;1.08;0.80;;;;;;;4.35;100.00;98453.81;5093364;28;20044;-42
2023/12/23 02:25:42;;;;;;;0.95;0.82;;;;;;;4.43;100.00;98451.50;5092939;28;20063;-41
2023/12/23 02:28:13;;;;;;;1.42;0.80;;;;;;;4.42;100.00;98445.38;5100655;28;20048;-42
2023/12/23 02:30:44;;;;;;;0.38;0.32;;;;;;;4.42;100.00;98449.81;5113321;28;20497;-41
2023/12/23 02:33:13;;;;;;;0.70;0.47;;;;;;;4.41;100.00;98438.41;5100272;28;20135;-42
2023/12/23 02:35:41;;;;;;;1.17;0.30;;;;;;;4.40;100.00;98442.00;5092630;28;20052;-41
2023/12/23 02:38:12;;;;;;;0.22;0.22;;;;;;;4.41;100.00;98459.53;5107901;28;20539;-42
2023/12/23 02:40:41;;;;;;;0.57;0.22;;;;;;;4.41;100.00;98461.31;5113481;28;20043;-42
2023/12/23 02:43:09;;;;;;;0.20;0.20;;;;;;;4.42;100.00;98461.22;5113096;28;20511;-42
2023/12/23 02:45:38;;;;;;;0.50;0.25;;;;;;;4.55;100.00;98450.75;5110679;28;20459;-42
2023/12/23 02:48:07;;;;;;;0.10;0.10;;;;;;;4.46;100.00;98433.69;5098904;28;20408;-41
2023/12/23 02:50:36;;;;;;;0.17;0.17;;;;;;;4.52;100.00;98433.28;5098144;28;20476;-42
2023/12/23 02:53:07;;;;;;;0.35;0.20;;;;;;;4.60;100.00;98453.91;5092812;28;20052;-42
2023/12/23 02:55:38;;;;;;;0.30;0.30;;;;;;;4.55;100.00;98464.78;5092665;28;20075;-42
2023/12/23 02:58:07;;;;;;;0.17;0.17;;;;;;;4.59;100.00;98474.19;5092675;28;20370;-41
2023/12/23 03:00:36;;;;;;;0.30;0.20;;;;;;;4.69;100.00;98478.88;5092677;28;20168;-43
2023/12/23 03:03:04;;;;;;;0.52;0.22;;;;;;;4.73;100.00;98490.94;5092325;28;20139;-43
2023/12/23 03:05:33;;;;;;;0.50;0.30;;;;;;;4.80;100.00;98497.53;5092749;28;20052;-45
2023/12/23 03:08:01;;;;;;;0.85;0.30;;;;;;;4.76;100.00;98496.03;5092632;28;20044;-42
2023/12/23 03:10:30;;;;;;;0.35;0.28;;;;;;;4.73;100.00;98494.47;5094163;28;20142;-42
2023/12/23 03:12:59;;;;;;;0.40;0.20;;;;;;;4.64;100.00;98502.97;5112504;28;20051;-42
2023/12/23 03:15:27;;;;;;;0.10;0.10;;;;;;;4.60;100.00;98499.66;5103631;28;20471;-44
2023/12/23 03:17:56;;;;;;;0.50;0.20;;;;;;;4.58;100.00;98496.28;5092363;28;20094;-41
2023/12/23 03:20:26;;;;;;;0.55;0.30;;;;;;;4.64;100.00;98512.69;5091938;28;20059;-42
2023/12/23 03:22:55;;;;;;;0.22;0.20;;;;;;;4.70;100.00;98507.00;5097962;28;20040;-41
2023/12/23 03:25:23;;;;;;;0.52;0.30;;;;;;;4.77;100.00;98503.88;5107294;28;20047;-41
2023/12/23 03:27:51;;;;;;;0.40;0.20;;;;;;;4.79;100.00;98535.47;5112109;28;20114;-41
2023/12/23 03:30:21;;;;;;;0.20;0.20;;;;;;;4.74;100.00;98563.97;5112124;28;20105;-42
2023/12/23 03:32:49;;;;;;;0.25;0.20;;;;;;;4.84;100.00;98568.59;5112333;28;20074;-42
2023/12/23 03:35:18;;;;;;;0.40;0.30;;;;;;;4.81;100.00;98584.59;5112596;28;20051;-42
2023/12/23 03:37:47;;;;;;;0.52;0.30;;;;;;;4.52;100.00;98565.28;5112621;28;20085;-43
2023/12/23 03:40:15;;;;;;;0.15;0.15;;;;;;;4.58;100.00;98572.00;5112506;28;20560;-42
2023/12/23 03:42:44;;;;;;;0.10;0.10;;;;;;;4.70;100.00;98575.66;5098194;27;20143;-42
2023/12/23 03:45:12;;;;;;;1.05;0.20;;;;;;;4.68;100.00;98561.72;5101824;28;20048;-41
2023/12/23 03:47:42;;;;;;;0.35;0.20;;;;;;;4.57;100.00;98526.25;5112029;28;20134;-42
2023/12/23 03:50:11;;;;;;;0.20;0.20;;;;;;;4.34;100.00;98508.34;5111917;28;20078;-40
2023/12/23 03:52:39;;;;;;;0.93;0.35;;;;;;;4.35;100.00;98517.16;5098813;28;20052;-42
2023/12/23 03:55:08;;;;;;;0.10;0.10;;;;;;;4.18;100.00;98503.19;5091352;28;20507;-42
2023/12/23 03:57:37;;;;;;;0.75;0.30;;;;;;;4.08;100.00;98504.72;5104375;28;20067;-44
2023/12/23 04:00:07;;;;;;;0.20;0.20;;;;;;;4.24;100.00;98507.22;5102635;28;20493;-41
2023/12/23 04:02:35;;;;;;;0.45;0.20;;;;;;;4.14;100.00;98514.03;5095823;28;20044;-42
2023/12/23 04:05:07;;;;;;;0.20;0.20;;;;;;;4.32;100.00;98520.81;5111839;28;20061;-42
2023/12/23 04:07:36;;;;;;;1.35;0.28;;;;;;;4.37;100.00;98518.75;5104707;28;20420;-41
2023/12/23 04:10:05;;;;;;;0.20;0.20;;;;;;;4.46;100.00;98507.63;5091093;28;20528;-41
2023/12/23 04:12:34;;;;;;;0.45;0.20;;;;;;;4.54;100.00;98501.84;5103165;28;20039;-42
2023/12/23 04:15:05;;;;;;;1.15;0.38;;;;;;;4.41;100.00;98501.75;5111524;28;20076;-42
2023/12/23 04:17:34;;;;;;;0.45;0.30;;;;;;;4.48;100.00;98481.97;5111399;28;20506;-42
2023/12/23 04:20:03;;;;;;;0.28;0.20;;;;;;;4.51;100.00;98486.19;5111589;28;20066;-42
2023/12/23 04:22:33;;;;;;;0.95;0.30;;;;;;;4.34;100.00;98483.75;5108353;28;20066;-42
2023/12/23 04:25:01;;;;;;;0.32;0.30;;;;;;;4.45;100.00;98476.88;5091225;28;20572;-42
2023/12/23 04:27:30;;;;;;;0.75;0.40;;;;;;;4.43;100.00;98473.47;5094367;28;20548;-41
2023/12/23 04:29:59;;;;;;;0.55;0.30;;;;;;;4.51;100.00;98471.19;5111388;28;20083;-42
2023/12/23 04:32:27;;;;;;;1.05;0.40;;;;;;;4.57;100.00;98475.25;5111448;28;20075;-44
2023/12/23 04:34:59;;;;;;;1.67;0.30;;;;;;;4.42;100.00;98473.56;5101718;28;20074;-43
2023/12/23 04:37:27;;;;;;;0.55;0.40;;;;;;;4.48;100.00;98476.69;5095006;28;20131;-40
2023/12/23 04:39:56;;;;;;;0.57;0.50;;;;;;;4.48;100.00;98500.44;5115229;28;20051;-41
2023/12/23 04:42:25;;;;;;;0.65;0.40;;;;;;;4.63;100.00;98508.31;5115545;28;20207;-42
2023/12/23 04:44:53;;;;;;;1.10;0.55;;;;;;;4.60;100.00;98490.88;5115530;28;20040;-42
2023/12/23 04:47:21;;;;;;;0.90;0.47;;;;;;;4.52;100.00;98499.28;5115340;28;20096;-42
2023/12/23 04:49:49;;;;;;;0.63;0.30;;;;;;;4.57;100.00;98510.41;5115268;28;20131;-41
2023/12/23 04:52:18;;;;;;;0.30;0.30;;;;;;;4.64;100.00;98536.44;5105206;28;20044;-42
2023/12/23 04:54:46;;;;;;;0.63;0.30;;;;;;;4.58;100.00;98530.59;5094856;28;20044;-42
2023/12/23 04:57:16;;;;;;;1.38;0.40;;;;;;;4.61;100.00;98508.41;5095124;28;20131;-41
2023/12/23 04:59:44;;;;;;;0.40;0.30;;;;;;;4.60;100.00;98523.41;5095000;28;20390;-42
2023/12/23 05:02:13;;;;;;;0.30;0.20;;;;;;;4.63;100.00;98524.16;5106133;28;20047;-42
2023/12/23 05:04:42;;;;;;;0.45;0.20;;;;;;;4.72;100.00;98537.63;5115222;28;20047;-42
2023/12/23 05:07:11;;;;;;;0.75;0.30;;;;;;;4.73;100.00;98546.41;5111633;28;20094;-41
2023/12/23 05:09:39;;;;;;;0.55;0.30;;;;;;;4.61;100.00;98545.41;5094482;28;20131;-42
2023/12/23 05:12:08;;;;;;;0.90;0.40;;;;;;;4.35;100.00;98554.97;5094255;28;20044;-41
2023/12/23 05:14:38;;;;;;;1.85;0.40;;;;;;;4.47;100.00;98569.19;5094289;28;20128;-42
2023/12/23 05:17:06;;;;;;;0.80;0.50;;;;;;;4.51;100.00;98597.09;5098065;28;20075;-43
2023/12/23 05:19:35;;;;;;;0.63;0.50;;;;;;;4.46;100.00;98583.34;5094398;28;20084;-43
2023/12/23 05:22:03;;;;;;;2.42;0.60;;;;;;;4.42;100.00;98598.50;5094193;28;20063;-42
2023/12/23 05:24:32;;;;;;;2.00;0.60;;;;;;;4.52;100.00;98620.75;5094248;28;20088;-44
2023/12/23 05:27:00;;;;;;;0.40;0.35;;;;;;;4.52;100.00;98641.88;5093886;28;20151;-41
2023/12/23 05:29:29;;;;;;;0.68;0.50;;;;;;;4.56;100.00;98638.13;5097695;28;20122;-43
2023/12/23 05:31:59;;;;;;;0.95;0.60;;;;;;;4.48;100.00;98650.94;5114536;28;20097;-43
2023/12/23 05:34:27;;;;;;;1.13;0.50;;;;;;;4.67;100.00;98668.31;5101750;28;20040;-42
2023/12/23 05:36:55;;;;;;;0.98;0.70;;;;;;;4.50;100.00;98670.16;5111620;28;20066;-42
2023/12/23 05:39:23;;;;;;;0.68;0.40;;;;;;;4.56;100.00;98672.44;5106072;28;20044;-41
2023/12/23 05:41:52;;;;;;;1.13;0.50;;;;;;;4.58;100.00;98677.63;5099000;28;20079;-42
2023/12/23 05:44:20;;;;;;;2.10;0.47;;;;;;;4.59;100.00;98664.34;5094741;28;20044;-41
2023/12/23 05:46:49;;;;;;;1.55;0.60;;;;;;;4.25;100.00;98680.53;5093797;28;20039;-42
2023/12/23 05:49:18;;;;;;;0.90;0.43;;;;;;;4.19;100.00;98679.06;5093339;28;20066;-41
2023/12/23 05:51:53;;;;;;;0.40;0.30;;;;;;;4.09;100.00;98685.00;5098288;28;20180;-41
2023/12/23 05:54:21;;;;;;;1.00;0.47;;;;;;;4.10;100.00;98697.25;5093674;28;20044;-41
2023/12/23 05:56:50;;;;;;;0.95;0.50;;;;;;;4.18;100.00;98689.72;5093712;28;20089;-43
2023/12/23 05:59:18;;;;;;;0.55;0.40;;;;;;;4.00;100.00;98703.06;5093711;28;20105;-43
2023/12/23 06:01:46;;;;;;;1.20;0.45;;;;;;;4.06;100.00;98701.00;5097541;28;20036;-43
2023/12/23 06:04:14;;;;;;;1.15;0.45;;;;;;;4.13;100.00;98718.16;5094112;28;20471;-41
2023/12/23 06:06:44;;;;;;;0.60;0.50;;;;;;;4.21;100.00;98722.06;5113792;28;20043;-41
2023/12/23 06:09:13;;;;;;;1.05;0.47;;;;;;;3.99;100.00;98725.09;5113415;28;20043;-42
2023/12/23 06:11:41;;;;;;;1.42;0.45;;;;;;;4.23;100.00;98706.97;5113786;28;20123;-41
2023/12/23 06:14:10;;;;;;;0.55;0.30;;;;;;;4.14;100.00;98714.59;5113594;28;20461;-43
2023/12/23 06:16:41;;;;;;;1.38;0.43;;;;;;;3.95;100.00;98720.06;5113679;28;20109;-41
2023/12/23 06:19:10;;;;;;;2.10;0.77;;;;;;;3.97;100.00;98705.88;5113491;27;20043;-41
2023/12/23 06:21:45;;;;;;;3.50;0.60;;;;;;;4.00;100.00;98718.88;5112959;28;20047;-41
2023/12/23 06:24:15;;;;;;;1.98;0.63;;;;;;;3.92;100.00;98720.25;5096190;28;20055;-42
2023/12/23 06:26:44;;;;;;;3.20;1.08;;;;;;;4.09;100.00;98692.91;5092839;28;20135;-41
2023/12/23 06:29:13;;;;;;;1.55;0.60;;;;;;;3.93;100.00;98685.88;5092801;28;20138;-42
2023/12/23 06:31:41;;;;;;;2.60;0.60;;;;;;;4.09;100.00;98696.41;5092968;28;20147;-42
2023/12/23 06:34:10;;;;;;;0.40;0.40;;;;;;;4.31;100.00;98711.81;5092747;28;20458;-42
2023/12/23 06:36:38;;;;;;;2.88;0.40;;;;;;;4.33;100.00;98720.47;5092564;28;20097;-42
2023/12/23 06:39:07;;;;;;;0.65;0.40;;;;;;;4.22;100.00;98736.94;5092930;28;20098;-42
2023/12/23 06:41:37;;;;;;;0.40;0.40;;;;;;;4.16;100.00;98744.41;5092576;28;20051;-41
2023/12/23 06:44:05;;;;;;;1.40;0.47;;;;;;;4.38;100.00;98746.63;5092793;28;20059;-45
2023/12/23 06:46:33;;;;;;;0.45;0.40;;;;;;;4.45;100.00;98769.94;5092534;28;20123;-42
2023/12/23 06:49:02;;;;;;;0.30;0.30;;;;;;;4.27;100.00;98773.66;5092598;28;20405;-42
2023/12/23 06:51:31;;;;;;;0.80;0.40;;;;;;;4.35;100.00;98770.56;5092449;28;20055;-41
2023/12/23 06:53:59;;;;;;;0.45;0.30;;;;;;;4.52;100.00;98781.81;5092425;28;20417;-42
2023/12/23 06:56:27;;;;;;;1.42;0.45;;;;;;;4.47;100.00;98783.91;5092462;28;20059;-42
2023/12/23 06:58:59;;;;;;;0.30;0.28;;;;;;;4.54;100.00;98782.59;5106295;28;20036;-42
2023/12/23 07:01:36;;;;;;;1.85;0.55;;;;;;;4.57;100.00;98797.41;5095208;28;20152;-41
2023/12/23 07:04:06;;;;;;;1.35;0.52;;;;;;;4.57;100.00;98787.69;5112825;28;20179;-43
2023/12/23 07:06:34;;;;;;;0.68;0.47;;;;;;;4.55;100.00;98800.16;5112944;28;20404;-41
2023/12/23 07:09:03;;;;;;;0.43;0.40;;;;;;;4.60;100.00;98802.50;5112371;28;20484;-42
2023/12/23 07:11:36;;;;;;;1.05;0.60;;;;;;;4.61;100.00;98798.91;5112655;28;20044;-41
2023/12/23 07:14:05;;;;;;;0.82;0.50;;;;;;;4.56;100.00;98804.47;5112304;28;20074;-42
2023/12/23 07:16:34;;;;;;;1.77;0.90;;;;;;;4.61;100.00;98804.19;5077244;28;20047;-42
2023/12/23 07:19:02;;;;;;;0.93;0.60;;;;;;;4.74;100.00;98815.75;5071674;28;20122;-42
2023/12/23 07:21:30;;;;;;;1.40;0.60;;;;;;;4.65;100.00;98815.47;5083316;28;20052;-41
2023/12/23 07:23:59;;;;;;;0.65;0.50;;;;;;;4.67;100.00;98839.97;5091754;28;20425;-42
2023/12/23 07:26:27;;;;;;;1.45;0.43;;;;;;;4.85;100.00;98834.47;5094842;28;20117;-41
2023/12/23 07:28:56;;;;;;;0.98;0.38;;;;;;;4.69;100.00;98838.94;5111286;28;20480;-42
2023/12/23 07:31:32;;;;;;;0.98;0.50;;;;;;;4.67;100.00;98850.53;5108481;28;20503;-42
2023/12/23 07:34:02;;;;;;;0.98;0.50;;;;;;;4.66;100.00;98862.91;5093442;28;20102;-41
2023/12/23 07:36:31;;;;;;;0.88;0.55;;;;;;;4.65;100.00;98878.84;5104899;28;20439;-42
2023/12/23 07:38:59;;;;;;;1.23;0.50;;;;;;;4.71;100.00;98886.41;5090571;28;20047;-41
2023/12/23 07:41:27;;;;;;;1.92;0.63;;;;;;;4.67;100.00;98901.56;5090752;28;20139;-42
2023/12/23 07:43:56;;;;;;;1.08;0.60;;;;;;;4.71;100.00;98889.88;5090891;28;20051;-40
2023/12/23 07:46:26;;;;;;;1.50;0.70;;;;;;;4.62;100.00;98905.41;5095338;28;20125;-42
2023/12/23 07:48:54;;;;;;;1.60;0.68;;;;;;;4.57;100.00;98898.63;5111158;28;20047;-41
2023/12/23 07:51:22;;;;;;;0.85;0.50;;;;;;;4.75;100.00;98925.75;5099397;28;20044;-42
2023/12/23 07:53:51;;;;;;;1.50;0.60;;;;;;;4.53;100.00;98912.91;5109057;28;20406;-41
2023/12/23 07:56:19;;;;;;;1.83;0.57;;;;;;;4.77;100.00;98930.97;5090593;28;20609;-44
2023/12/23 07:58:48;;;;;;;2.65;0.60;;;;;;;4.64;100.00;98932.59;5090464;28;20086;-41
2023/12/23 08:01:16;;;;;;;1.75;0.57;;;;;;;4.55;100.00;98940.09;5093747;28;20044;-43
2023/12/23 08:03:46;;;;;;;0.90;0.40;;;;;;;4.52;100.00;98955.25;5111093;28;20059;-41
2023/12/23 08:06:16;;;;;;;2.92;0.88;;;;;;;4.70;100.00;98959.50;5110697;28;20047;-41
2023/12/23 08:08:45;;;;;;;2.17;0.85;;;;;;;4.57;100.00;98977.84;5094828;28;20101;-42
2023/12/23 08:11:14;;;;;;;1.63;0.55;;;;;;;4.72;100.00;98967.34;5110870;28;20411;-42
2023/12/23 08:13:42;;;;;;;2.40;0.68;;;;;;;4.66;100.00;98991.47;5109330;28;20130;-41
2023/12/23 08:16:11;;;;;;;1.63;0.80;;;;;;;4.82;100.00;98981.72;5091740;28;20125;-42
2023/12/23 08:18:40;;;;;;;1.80;0.80;;;;;;;4.79;100.00;98979.25;5090095;28;20092;-42
2023/12/23 08:21:10;;;;;;;1.48;0.70;;;;;;;4.79;100.00;99011.81;5090454;28;20123;-41
2023/12/23 08:23:38;;;;;;;3.63;0.80;;;;;;;4.69;100.00;98999.22;5096365;28;20104;-41
2023/12/23 08:26:06;;;;;;;1.27;0.52;;;;;;;4.77;100.00;99008.41;5055807;28;1139377;-42
2023/12/23 08:28:35;;;;;;;1.50;0.70;;;;;;;4.75;100.00;99026.16;5096779;28;20108;-41
2023/12/23 08:31:05;;;;;;;1.73;0.82;;;;;;;4.77;100.00;99050.69;5097408;28;20120;-42
2023/12/23 08:33:34;;;;;;;3.50;0.80;;;;;;;4.73;100.00;99021.88;5095871;28;20043;-41
2023/12/23 08:36:03;;;;;;;1.52;0.60;;;;;;;4.79;100.00;99018.91;5105475;28;20051;-42
2023/12/23 08:38:32;;;;;;;2.15;0.90;;;;;;;4.77;100.00;99020.78;5095798;28;20131;-41
2023/12/23 08:41:01;;;;;;;2.83;1.10;;;;;;;4.99;100.00;99026.53;5106903;28;20047;-42
2023/12/23 08:43:29;;;;;;;2.03;0.93;;;;;;;4.68;100.00;99031.84;5070507;28;20045;-41
2023/12/23 08:45:58;;;;;;;3.22;1.00;;;;;;;4.83;100.00;99023.09;5099573;28;20047;-41
2023/12/23 08:48:27;;;;;;;1.52;0.80;;;;;;;5.01;100.00;99039.66;5111149;28;20047;-40
2023/12/23 08:50:56;;;;;;;1.73;0.70;;;;;;;5.13;100.00;99033.72;5111083;28;20192;-41
2023/12/23 08:53:24;;;;;;;3.17;1.10;;;;;;;4.89;100.00;99051.78;5106041;28;20138;-42
2023/12/23 08:55:54;;;;;;;2.35;0.98;;;;;;;5.08;100.00;99062.19;5096568;28;20074;-45
2023/12/23 08:58:25;;;;;;;2.50;0.85;;;;;;;5.00;100.00;99046.75;5090399;28;20089;-41
2023/12/23 09:00:54;;;;;;;3.08;1.00;;;;;;;4.89;100.00;99062.34;5090826;28;20165;-41
2023/12/23 09:03:23;;;;;;;2.10;0.73;;;;;;;4.85;100.00;99061.69;5110766;28;20043;-42
2023/12/23 09:05:51;;;;;;;3.17;1.00;;;;;;;4.73;100.00;99067.66;5110984;28;20088;-42
2023/12/23 09:08:20;;;;;;;2.25;1.00;;;;;;;4.85;100.00;99068.75;5113265;28;20069;-43
2023/12/23 09:10:48;;;;;;;1.73;0.80;;;;;;;4.77;100.00;99068.34;5112258;28;20407;-41
2023/12/23 09:13:18;;;;;;;2.45;0.90;;;;;;;4.88;100.00;99066.78;5110992;28;20048;-44
2023/12/23 09:15:50;;;;;;;3.58;1.10;;;;;;;4.81;100.00;99070.69;5111396;28;20048;-42
2023/12/23 09:18:19;;;;;;;2.33;0.70;;;;;;;5.22;100.00;99064.91;5110796;28;20054;-43
2023/12/23 09:20:47;;;;;;;1.98;0.70;;;;;;;5.25;100.00;99074.44;5110853;28;20094;-41
2023/12/23 09:23:15;;;;;;;2.13;0.82;;;;;;;4.98;100.00;99064.47;5110960;28;20040;-40
2023/12/23 09:25:44;;;;;;;2.28;0.75;;;;;;;5.12;100.00;99051.38;5093405;28;20059;-42
2023/12/23 09:28:13;;;;;;;2.55;0.98;;;;;;;5.14;100.00;99060.06;5114443;28;20143;-42
2023/12/23 09:30:45;;;;;;;3.58;1.08;;;;;;;5.12;100.00;99075.16;5113068;28;20055;-47
2023/12/23 09:33:13;;;;;;;3.45;0.80;;;;;;;5.08;100.00;99073.59;5097932;28;20249;-42
2023/12/23 09:35:42;;;;;;;1.90;0.75;;;;;;;5.26;100.00;99066.41;5099279;28;20070;-42
2023/12/23 09:38:10;;;;;;;3.53;1.10;;;;;;;5.10;100.00;99050.56;5101203;27;20074;-42
2023/12/23 09:40:39;;;;;;;3.92;1.10;;;;;;;5.26;100.00;99052.34;5098951;28;20060;-43
2023/12/23 09:43:08;;;;;;;3.58;1.10;;;;;;;5.35;100.00;99036.81;5097348;28;20044;-40
2023/12/23 09:45:38;;;;;;;3.53;0.82;;;;;;;5.35;100.00;99047.38;5097681;28;20040;-42
2023/12/23 09:48:08;;;;;;;2.92;0.90;;;;;;;5.54;100.00;99044.53;5099265;28;20067;-40
2023/12/23 09:50:36;;;;;;;3.58;0.70;;;;;;;5.52;100.00;99041.13;5098798;28;20043;-40
2023/12/23 09:53:06;;;;;;;2.72;0.98;;;;;;;5.49;100.00;99040.44;5099885;28;20048;-41
2023/12/23 09:55:37;;;;;;;4.00;1.00;;;;;;;5.56;100.00;99069.09;5101614;28;20044;-43
2023/12/23 09:58:08;;;;;;;4.00;1.00;;;;;;;5.56;100.00;99074.38;5102007;28;20044;-43
2023/12/23 10:00:36;;;;;;;3.95;1.23;;;;;;;5.52;100.00;99072.00;5101791;28;20050;-40
2023/12/23 10:03:08;;;;;;;3.22;1.05;;;;;;;5.42;100.00;99080.47;5106178;28;20112;-40
2023/12/23 10:05:42;;;;;;;2.65;1.20;;;;;;;5.52;100.00;99078.16;5098190;27;20047;-41
2023/12/23 10:08:10;;;;;;;2.97;1.17;;;;;;;5.54;100.00;99091.28;5097980;28;20052;-41
2023/12/23 10:10:39;;;;;;;4.85;1.20;;;;;;;5.50;100.00;99080.03;5093411;28;20048;-41
2023/12/23 10:13:07;;;;;;;3.47;1.33;;;;;;;5.52;100.00;99086.09;5093244;28;20082;-43
2023/12/23 10:15:36;;;;;;;3.55;1.42;;;;;;;5.55;100.00;99085.91;5091852;28;20052;-43
2023/12/23 10:18:06;;;;;;;3.75;1.10;;;;;;;5.37;100.00;99085.16;5092002;28;20698;-43
2023/12/23 10:20:35;;;;;;;5.65;1.15;;;;;;;5.48;100.00;99084.53;5072284;28;20533;-41
2023/12/23 10:23:04;;;;;;;2.55;0.90;;;;;;;5.43;100.00;99078.69;5092372;28;20085;-43
2023/12/23 10:25:33;;;;;;;4.15;1.15;;;;;;;5.39;100.00;99083.28;5106336;28;20056;-42
2023/12/23 10:28:04;;;;;;;3.83;1.15;;;;;;;5.45;100.00;99077.66;5112952;28;20546;-42
2023/12/23 10:30:35;;;;;;;3.22;1.02;;;;;;;5.57;100.00;99086.66;5092832;28;20052;-43
2023/12/23 10:33:07;;;;;;;4.13;1.33;;;;;;;5.57;100.00;99075.22;5092532;28;20190;-43
2023/12/23 10:35:44;;;;;;;3.00;1.02;;;;;;;5.51;100.00;99087.03;5091711;28;20568;-42
2023/12/23 10:38:16;;;;;;;5.60;1.40;;;;;;;5.45;100.00;99074.16;5092469;28;20048;-43
2023/12/23 10:40:51;;;;;;;4.82;1.10;;;;;;;5.44;100.00;99070.66;5101048;28;20044;-43
2023/12/23 10:43:21;;;;;;;4.15;1.20;;;;;;;5.55;100.00;99085.06;5092372;28;20158;-41
2023/12/23 10:45:49;;;;;;;5.07;1.40;;;;;;;5.59;100.00;99081.28;5099972;28;20508;-43
2023/12/23 10:48:18;;;;;;;13.48;4.53;;;;;;;5.60;100.00;99085.66;5109034;28;20067;-42
2023/12/23 10:50:51;;;;;;;7.03;2.10;;;;;;;5.67;100.00;99087.81;5096696;28;20048;-42
2023/12/23 10:53:21;;;;;;;4.97;1.50;;;;;;;5.63;100.00;99077.53;5109606;28;20050;-42
2023/12/23 10:55:52;;;;;;;4.85;1.38;;;;;;;5.65;100.00;99079.13;5091777;27;20054;-42
2023/12/23 10:58:21;;;;;;;3.40;0.93;;;;;;;5.65;100.00;99076.47;5091008;28;20135;-40
2023/12/23 11:00:51;;;;;;;5.72;1.17;;;;;;;5.60;100.00;99059.19;5091482;28;20067;-41
2023/12/23 11:03:20;;;;;;;4.85;1.30;;;;;;;5.52;100.00;99067.56;5091472;28;20044;-45
2023/12/23 11:05:52;;;;;;;3.38;1.45;;;;;;;5.70;100.00;99063.00;5089337;28;20493;-42
2023/12/23 11:08:23;;;;;;;5.22;1.13;;;;;;;5.60;100.00;99065.34;5091397;28;20056;-42
2023/12/23 11:10:52;;;;;;;4.28;1.38;;;;;;;5.55;100.00;99064.75;5091181;28;20048;-42
2023/12/23 11:13:20;;;;;;;5.60;1.50;;;;;;;5.52;100.00;99046.41;5096854;28;20055;-43
2023/12/23 11:15:49;;;;;;;4.57;1.95;;;;;;;5.52;100.00;99038.47;5092199;28;20489;-40
2023/12/23 11:18:17;;;;;;;6.70;2.60;;;;;;;5.56;100.00;99047.94;5098412;28;20039;-41
2023/12/23 11:20:49;;;;;;;7.00;2.10;;;;;;;5.53;100.00;99052.56;5097267;28;20662;-42
2023/12/23 11:23:38;;;;;;;1.87;1.20;;;;;;;5.55;100.00;99051.50;5096383;28;20044;-42
2023/12/23 11:26:42;;;;;;;3.65;1.48;;;;;;;5.61;100.00;99053.81;5095567;28;20702;-47
2023/12/23 11:29:14;;;;;;;4.05;1.40;;;;;;;5.39;100.00;99053.34;5093649;28;20076;-43
2023/12/23 11:31:42;;;;;;;3.83;1.30;;;;;;;5.38;100.00;99046.34;5091759;28;20069;-42
2023/12/23 11:34:16;;;;;;;4.88;1.55;;;;;;;5.19;100.00;99035.97;5090972;28;20062;-43
2023/12/23 11:36:46;;;;;;;6.35;1.83;;;;;;;5.30;100.00;99035.34;5093031;28;20062;-42
2023/12/23 11:39:17;;;;;;;3.45;1.25;;;;;;;5.26;100.00;99028.56;5090798;28;20394;-43
2023/12/23 11:41:46;;;;;;;3.55;1.00;;;;;;;5.14;100.00;99023.03;5091176;28;20040;-42
2023/12/23 11:44:15;;;;;;;3.53;1.20;;;;;;;5.16;100.00;99021.16;5089610;28;20830;-43